sensor_id;sensor_type;location;lat;lon;timestamp;P1;durP1;ratioP1;P2;durP2;ratioP2
29700;SDS011;57917;51.380;-0.176;2024-02-23T00:05:05;278.08;;;73.05;;
29700;SDS011;57917;51.380;-0.176;2024-02-23T00:10:52;371.25;;;81.30;;
29700;SDS011;57917;51.380;-0.176;2024-02-23T00:23:37;308.08;;;72.05;;
29700;SDS011;57917;51.380;-0.176;2024-02-23T00:29:23;341.73;;;76.63;;
29700;SDS011;57917;51.380;-0.176;2024-02-23T00:35:10;340.17;;;79.07;;
29700;SDS011;57917;51.380;-0.176;2024-02-23T00:40:57;315.80;;;74.47;;
29700;SDS011;57917;51.380;-0.176;2024-02-23T00:46:44;337.75;;;76.95;;
29700;SDS011;57917;51.380;-0.176;2024-02-23T00:52:31;237.60;;;70.32;;
29700;SDS011;57917;51.380;-0.176;2024-02-23T00:58:19;272.05;;;69.68;;
29700;SDS011;57917;51.380;-0.176;2024-02-23T01:04:05;320.73;;;76.63;;
29700;SDS011;57917;51.380;-0.176;2024-02-23T01:09:52;215.38;;;64.72;;
29700;SDS011;57917;51.380;-0.176;2024-02-23T01:15:39;159.73;;;57.65;;
29700;SDS011;57917;51.380;-0.176;2024-02-23T01:21:30;199.60;;;63.95;;
29700;SDS011;57917;51.380;-0.176;2024-02-23T01:27:17;138.60;;;54.35;;
29700;SDS011;57917;51.380;-0.176;2024-02-23T01:33:05;65.45;;;35.15;;
29700;SDS011;57917;51.380;-0.176;2024-02-23T01:38:52;45.13;;;25.17;;
29700;SDS011;57917;51.380;-0.176;2024-02-23T01:44:39;35.22;;;11.88;;
29700;SDS011;57917;51.380;-0.176;2024-02-23T01:50:26;23.42;;;8.25;;
29700;SDS011;57917;51.380;-0.176;2024-02-23T01:56:14;31.63;;;7.88;;
29700;SDS011;57917;51.380;-0.176;2024-02-23T02:02:05;33.53;;;8.57;;
29700;SDS011;57917;51.380;-0.176;2024-02-23T02:07:55;22.92;;;5.03;;
29700;SDS011;57917;51.380;-0.176;2024-02-23T02:13:46;31.13;;;5.45;;
29700;SDS011;57917;51.380;-0.176;2024-02-23T02:19:33;30.10;;;5.30;;
29700;SDS011;57917;51.380;-0.176;2024-02-23T02:25:20;29.63;;;5.45;;
29700;SDS011;57917;51.380;-0.176;2024-02-23T02:31:07;31.48;;;5.72;;
29700;SDS011;57917;51.380;-0.176;2024-02-23T02:36:54;26.30;;;4.60;;
29700;SDS011;57917;51.380;-0.176;2024-02-23T02:42:41;23.88;;;4.53;;
29700;SDS011;57917;51.380;-0.176;2024-02-23T02:48:28;25.55;;;5.47;;
29700;SDS011;57917;51.380;-0.176;2024-02-23T02:54:15;30.63;;;5.45;;
29700;SDS011;57917;51.380;-0.176;2024-02-23T03:00:03;31.10;;;5.72;;
29700;SDS011;57917;51.380;-0.176;2024-02-23T03:11:41;20.02;;;4.03;;
29700;SDS011;57917;51.380;-0.176;2024-02-23T03:17:28;22.33;;;3.90;;
29700;SDS011;57917;51.380;-0.176;2024-02-23T03:23:16;28.10;;;4.60;;
29700;SDS011;57917;51.380;-0.176;2024-02-23T03:29:03;22.73;;;3.92;;
29700;SDS011;57917;51.380;-0.176;2024-02-23T03:34:50;22.63;;;3.83;;
29700;SDS011;57917;51.380;-0.176;2024-02-23T03:40:37;21.40;;;4.13;;
29700;SDS011;57917;51.380;-0.176;2024-02-23T03:46:24;24.67;;;4.03;;
29700;SDS011;57917;51.380;-0.176;2024-02-23T03:52:13;17.80;;;3.03;;
29700;SDS011;57917;51.380;-0.176;2024-02-23T03:58:00;21.02;;;3.78;;
29700;SDS011;57917;51.380;-0.176;2024-02-23T04:03:47;21.52;;;3.75;;
29700;SDS011;57917;51.380;-0.176;2024-02-23T04:09:33;17.75;;;3.03;;
29700;SDS011;57917;51.380;-0.176;2024-02-23T04:15:20;15.05;;;2.53;;
29700;SDS011;57917;51.380;-0.176;2024-02-23T04:21:07;18.95;;;3.28;;
29700;SDS011;57917;51.380;-0.176;2024-02-23T04:26:54;13.95;;;2.40;;
29700;SDS011;57917;51.380;-0.176;2024-02-23T04:32:41;23.23;;;3.72;;
29700;SDS011;57917;51.380;-0.176;2024-02-23T04:38:29;17.42;;;3.10;;
29700;SDS011;57917;51.380;-0.176;2024-02-23T04:44:20;17.52;;;3.08;;
29700;SDS011;57917;51.380;-0.176;2024-02-23T04:50:07;22.27;;;4.25;;
29700;SDS011;57917;51.380;-0.176;2024-02-23T04:55:55;18.35;;;3.33;;
29700;SDS011;57917;51.380;-0.176;2024-02-23T05:01:42;21.92;;;4.93;;
29700;SDS011;57917;51.380;-0.176;2024-02-23T05:07:29;27.65;;;4.80;;
29700;SDS011;57917;51.380;-0.176;2024-02-23T05:13:19;25.10;;;4.50;;
29700;SDS011;57917;51.380;-0.176;2024-02-23T05:19:05;23.42;;;4.30;;
29700;SDS011;57917;51.380;-0.176;2024-02-23T05:24:52;23.00;;;4.25;;
29700;SDS011;57917;51.380;-0.176;2024-02-23T05:30:39;21.20;;;3.80;;
29700;SDS011;57917;51.380;-0.176;2024-02-23T05:36:27;20.52;;;3.72;;
29700;SDS011;57917;51.380;-0.176;2024-02-23T05:42:14;18.15;;;3.47;;
29700;SDS011;57917;51.380;-0.176;2024-02-23T05:48:00;27.38;;;5.03;;
29700;SDS011;57917;51.380;-0.176;2024-02-23T05:53:47;26.20;;;5.07;;
29700;SDS011;57917;51.380;-0.176;2024-02-23T05:59:34;26.13;;;4.65;;
29700;SDS011;57917;51.380;-0.176;2024-02-23T06:05:21;15.75;;;3.08;;
29700;SDS011;57917;51.380;-0.176;2024-02-23T06:11:09;24.70;;;4.78;;
29700;SDS011;57917;51.380;-0.176;2024-02-23T06:16:57;30.35;;;6.10;;
29700;SDS011;57917;51.380;-0.176;2024-02-23T06:22:43;22.25;;;4.32;;
29700;SDS011;57917;51.380;-0.176;2024-02-23T06:28:33;22.58;;;4.20;;
29700;SDS011;57917;51.380;-0.176;2024-02-23T06:34:23;21.83;;;3.78;;
29700;SDS011;57917;51.380;-0.176;2024-02-23T06:40:17;15.38;;;2.63;;
29700;SDS011;57917;51.380;-0.176;2024-02-23T06:46:08;26.17;;;4.55;;
29700;SDS011;57917;51.380;-0.176;2024-02-23T06:51:55;22.95;;;3.75;;
29700;SDS011;57917;51.380;-0.176;2024-02-23T06:57:42;23.35;;;4.05;;
29700;SDS011;57917;51.380;-0.176;2024-02-23T07:03:29;23.08;;;4.15;;
29700;SDS011;57917;51.380;-0.176;2024-02-23T07:09:18;21.05;;;3.55;;
29700;SDS011;57917;51.380;-0.176;2024-02-23T07:15:05;26.33;;;5.25;;
29700;SDS011;57917;51.380;-0.176;2024-02-23T07:20:52;19.38;;;3.35;;
29700;SDS011;57917;51.380;-0.176;2024-02-23T07:26:39;26.15;;;4.30;;
29700;SDS011;57917;51.380;-0.176;2024-02-23T07:32:26;51.72;;;5.25;;
29700;SDS011;57917;51.380;-0.176;2024-02-23T07:38:14;24.52;;;5.07;;
29700;SDS011;57917;51.380;-0.176;2024-02-23T07:44:00;23.73;;;4.30;;
29700;SDS011;57917;51.380;-0.176;2024-02-23T07:49:47;54.88;;;21.23;;
29700;SDS011;57917;51.380;-0.176;2024-02-23T07:55:34;46.53;;;20.48;;
29700;SDS011;57917;51.380;-0.176;2024-02-23T08:01:21;22.35;;;3.88;;
29700;SDS011;57917;51.380;-0.176;2024-02-23T08:07:08;29.15;;;4.97;;
29700;SDS011;57917;51.380;-0.176;2024-02-23T08:12:55;25.23;;;4.68;;
29700;SDS011;57917;51.380;-0.176;2024-02-23T08:18:41;23.25;;;4.38;;
29700;SDS011;57917;51.380;-0.176;2024-02-23T08:24:28;22.77;;;4.10;;
29700;SDS011;57917;51.380;-0.176;2024-02-23T08:30:15;24.33;;;4.38;;
29700;SDS011;57917;51.380;-0.176;2024-02-23T08:36:02;20.35;;;4.45;;
29700;SDS011;57917;51.380;-0.176;2024-02-23T08:41:52;25.83;;;10.10;;
29700;SDS011;57917;51.380;-0.176;2024-02-23T08:47:44;36.38;;;7.65;;
29700;SDS011;57917;51.380;-0.176;2024-02-23T08:53:35;30.05;;;5.85;;
29700;SDS011;57917;51.380;-0.176;2024-02-23T08:59:22;39.35;;;4.53;;
29700;SDS011;57917;51.380;-0.176;2024-02-23T09:05:09;21.17;;;3.72;;
29700;SDS011;57917;51.380;-0.176;2024-02-23T09:10:56;26.30;;;5.80;;
29700;SDS011;57917;51.380;-0.176;2024-02-23T09:16:43;28.65;;;6.90;;
29700;SDS011;57917;51.380;-0.176;2024-02-23T09:22:34;14.10;;;2.97;;
29700;SDS011;57917;51.380;-0.176;2024-02-23T09:28:20;27.17;;;5.30;;
29700;SDS011;57917;51.380;-0.176;2024-02-23T09:34:07;20.55;;;3.85;;
29700;SDS011;57917;51.380;-0.176;2024-02-23T09:39:55;18.63;;;3.03;;
29700;SDS011;57917;51.380;-0.176;2024-02-23T09:45:44;21.30;;;4.60;;
29700;SDS011;57917;51.380;-0.176;2024-02-23T09:51:35;26.05;;;5.65;;
29700;SDS011;57917;51.380;-0.176;2024-02-23T09:57:23;43.47;;;5.63;;
29700;SDS011;57917;51.380;-0.176;2024-02-23T10:03:10;40.63;;;8.13;;
29700;SDS011;57917;51.380;-0.176;2024-02-23T10:08:58;39.92;;;11.98;;
29700;SDS011;57917;51.380;-0.176;2024-02-23T10:14:45;29.85;;;8.88;;
29700;SDS011;57917;51.380;-0.176;2024-02-23T10:20:31;74.93;;;49.65;;
29700;SDS011;57917;51.380;-0.176;2024-02-23T10:26:19;34.38;;;10.23;;
29700;SDS011;57917;51.380;-0.176;2024-02-23T10:32:10;39.55;;;11.25;;
29700;SDS011;57917;51.380;-0.176;2024-02-23T10:38:01;36.60;;;9.30;;
29700;SDS011;57917;51.380;-0.176;2024-02-23T10:43:48;43.47;;;18.90;;
29700;SDS011;57917;51.380;-0.176;2024-02-23T10:49:35;30.35;;;7.70;;
29700;SDS011;57917;51.380;-0.176;2024-02-23T10:55:24;35.53;;;6.38;;
29700;SDS011;57917;51.380;-0.176;2024-02-23T11:01:13;29.60;;;6.63;;
29700;SDS011;57917;51.380;-0.176;2024-02-23T11:07:01;51.60;;;25.45;;
29700;SDS011;57917;51.380;-0.176;2024-02-23T11:19:08;49.80;;;6.63;;
29700;SDS011;57917;51.380;-0.176;2024-02-23T11:25:09;18.55;;;1.38;;
29700;SDS011;57917;51.380;-0.176;2024-02-23T11:30:56;2.05;;;0.70;;
29700;SDS011;57917;51.380;-0.176;2024-02-23T11:36:45;0.63;;;0.63;;
29700;SDS011;57917;51.380;-0.176;2024-02-23T11:42:45;2.15;;;0.55;;
29700;SDS011;57917;51.380;-0.176;2024-02-23T11:48:39;3.08;;;1.83;;
29700;SDS011;57917;51.380;-0.176;2024-02-23T11:54:37;2.95;;;0.90;;
29700;SDS011;57917;51.380;-0.176;2024-02-23T12:00:27;2.97;;;0.82;;
29700;SDS011;57917;51.380;-0.176;2024-02-23T12:06:16;1.35;;;0.60;;
29700;SDS011;57917;51.380;-0.176;2024-02-23T12:12:04;2.03;;;0.90;;
29700;SDS011;57917;51.380;-0.176;2024-02-23T12:17:52;0.32;;;0.32;;
29700;SDS011;57917;51.380;-0.176;2024-02-23T12:23:42;4.28;;;0.77;;
29700;SDS011;57917;51.380;-0.176;2024-02-23T12:29:31;1.50;;;0.85;;
29700;SDS011;57917;51.380;-0.176;2024-02-23T12:35:18;6.07;;;0.98;;
29700;SDS011;57917;51.380;-0.176;2024-02-23T12:41:05;1.90;;;0.68;;
29700;SDS011;57917;51.380;-0.176;2024-02-23T12:46:52;3.35;;;0.88;;
29700;SDS011;57917;51.380;-0.176;2024-02-23T12:52:39;4.80;;;0.85;;
29700;SDS011;57917;51.380;-0.176;2024-02-23T12:58:25;0.38;;;0.38;;
29700;SDS011;57917;51.380;-0.176;2024-02-23T13:04:12;1.60;;;0.52;;
29700;SDS011;57917;51.380;-0.176;2024-02-23T13:10:00;1.70;;;0.57;;
29700;SDS011;57917;51.380;-0.176;2024-02-23T13:15:47;0.50;;;0.50;;
29700;SDS011;57917;51.380;-0.176;2024-02-23T13:21:35;1.15;;;0.85;;
29700;SDS011;57917;51.380;-0.176;2024-02-23T13:27:22;0.63;;;0.50;;
29700;SDS011;57917;51.380;-0.176;2024-02-23T13:33:10;1.75;;;1.50;;
29700;SDS011;57917;51.380;-0.176;2024-02-23T13:38:58;3.05;;;1.10;;
29700;SDS011;57917;51.380;-0.176;2024-02-23T13:44:48;6.72;;;1.08;;
29700;SDS011;57917;51.380;-0.176;2024-02-23T13:50:35;3.05;;;1.20;;
29700;SDS011;57917;51.380;-0.176;2024-02-23T13:56:26;0.50;;;0.50;;
29700;SDS011;57917;51.380;-0.176;2024-02-23T14:02:14;0.98;;;0.85;;
29700;SDS011;57917;51.380;-0.176;2024-02-23T14:08:01;1.20;;;0.73;;
29700;SDS011;57917;51.380;-0.176;2024-02-23T14:13:50;1.55;;;0.85;;
29700;SDS011;57917;51.380;-0.176;2024-02-23T14:19:40;1.55;;;0.63;;
29700;SDS011;57917;51.380;-0.176;2024-02-23T14:25:28;8.25;;;1.10;;
29700;SDS011;57917;51.380;-0.176;2024-02-23T14:31:15;1.25;;;0.80;;
29700;SDS011;57917;51.380;-0.176;2024-02-23T14:37:02;1.95;;;0.75;;
29700;SDS011;57917;51.380;-0.176;2024-02-23T14:42:49;0.40;;;0.40;;
29700;SDS011;57917;51.380;-0.176;2024-02-23T14:48:36;0.75;;;0.75;;
29700;SDS011;57917;51.380;-0.176;2024-02-23T14:54:23;37.63;;;13.93;;
29700;SDS011;57917;51.380;-0.176;2024-02-23T15:00:10;48.67;;;21.05;;
29700;SDS011;57917;51.380;-0.176;2024-02-23T15:05:58;35.55;;;8.93;;
29700;SDS011;57917;51.380;-0.176;2024-02-23T15:11:45;32.88;;;6.80;;
29700;SDS011;57917;51.380;-0.176;2024-02-23T15:17:33;22.65;;;4.15;;
29700;SDS011;57917;51.380;-0.176;2024-02-23T15:23:20;35.88;;;6.28;;
29700;SDS011;57917;51.380;-0.176;2024-02-23T15:29:11;21.02;;;3.65;;
29700;SDS011;57917;51.380;-0.176;2024-02-23T15:34:59;0.57;;;0.52;;
29700;SDS011;57917;51.380;-0.176;2024-02-23T15:40:47;1.50;;;0.70;;
29700;SDS011;57917;51.380;-0.176;2024-02-23T15:46:36;0.20;;;0.20;;
29700;SDS011;57917;51.380;-0.176;2024-02-23T15:52:24;0.73;;;0.40;;
29700;SDS011;57917;51.380;-0.176;2024-02-23T15:58:13;1.75;;;0.60;;
29700;SDS011;57917;51.380;-0.176;2024-02-23T16:04:03;0.38;;;0.38;;
29700;SDS011;57917;51.380;-0.176;2024-02-23T16:09:50;5.25;;;1.23;;
29700;SDS011;57917;51.380;-0.176;2024-02-23T16:15:37;0.50;;;0.50;;
29700;SDS011;57917;51.380;-0.176;2024-02-23T16:21:24;0.30;;;0.30;;
29700;SDS011;57917;51.380;-0.176;2024-02-23T16:27:11;1.48;;;0.60;;
29700;SDS011;57917;51.380;-0.176;2024-02-23T16:32:58;0.47;;;0.43;;
29700;SDS011;57917;51.380;-0.176;2024-02-23T16:38:45;0.20;;;0.20;;
29700;SDS011;57917;51.380;-0.176;2024-02-23T16:44:32;0.47;;;0.40;;
29700;SDS011;57917;51.380;-0.176;2024-02-23T16:50:19;3.33;;;1.17;;
29700;SDS011;57917;51.380;-0.176;2024-02-23T16:56:09;0.40;;;0.40;;
29700;SDS011;57917;51.380;-0.176;2024-02-23T17:01:57;0.43;;;0.43;;
29700;SDS011;57917;51.380;-0.176;2024-02-23T17:07:44;0.63;;;0.63;;
29700;SDS011;57917;51.380;-0.176;2024-02-23T17:13:31;1.23;;;1.10;;
29700;SDS011;57917;51.380;-0.176;2024-02-23T17:19:19;0.95;;;0.65;;
29700;SDS011;57917;51.380;-0.176;2024-02-23T17:25:10;0.50;;;0.50;;
29700;SDS011;57917;51.380;-0.176;2024-02-23T17:30:58;0.63;;;0.60;;
29700;SDS011;57917;51.380;-0.176;2024-02-23T17:36:45;2.33;;;1.50;;
29700;SDS011;57917;51.380;-0.176;2024-02-23T17:42:32;2.10;;;1.13;;
29700;SDS011;57917;51.380;-0.176;2024-02-23T17:48:19;1.05;;;0.60;;
29700;SDS011;57917;51.380;-0.176;2024-02-23T17:54:06;4.72;;;0.77;;
29700;SDS011;57917;51.380;-0.176;2024-02-23T18:00:04;1.52;;;0.98;;
29700;SDS011;57917;51.380;-0.176;2024-02-23T18:05:51;0.70;;;0.60;;
29700;SDS011;57917;51.380;-0.176;2024-02-23T18:11:39;0.60;;;0.60;;
29700;SDS011;57917;51.380;-0.176;2024-02-23T18:17:28;1.85;;;1.10;;
29700;SDS011;57917;51.380;-0.176;2024-02-23T18:23:15;0.85;;;0.85;;
29700;SDS011;57917;51.380;-0.176;2024-02-23T18:29:02;0.52;;;0.50;;
29700;SDS011;57917;51.380;-0.176;2024-02-23T18:34:50;0.85;;;0.52;;
29700;SDS011;57917;51.380;-0.176;2024-02-23T18:40:38;2.40;;;1.05;;
29700;SDS011;57917;51.380;-0.176;2024-02-23T18:46:31;2.17;;;1.17;;
29700;SDS011;57917;51.380;-0.176;2024-02-23T18:58:12;0.80;;;0.80;;
29700;SDS011;57917;51.380;-0.176;2024-02-23T19:04:02;1.48;;;0.70;;
29700;SDS011;57917;51.380;-0.176;2024-02-23T19:09:52;0.40;;;0.35;;
29700;SDS011;57917;51.380;-0.176;2024-02-23T19:15:45;0.93;;;0.63;;
29700;SDS011;57917;51.380;-0.176;2024-02-23T19:27:28;0.63;;;0.63;;
29700;SDS011;57917;51.380;-0.176;2024-02-23T19:33:21;0.77;;;0.77;;
29700;SDS011;57917;51.380;-0.176;2024-02-23T19:39:17;1.00;;;0.75;;
29700;SDS011;57917;51.380;-0.176;2024-02-23T19:50:58;0.80;;;0.80;;
29700;SDS011;57917;51.380;-0.176;2024-02-23T19:56:46;1.75;;;0.95;;
29700;SDS011;57917;51.380;-0.176;2024-02-23T20:02:35;9.13;;;1.95;;
29700;SDS011;57917;51.380;-0.176;2024-02-23T20:08:27;118.63;;;23.70;;
29700;SDS011;57917;51.380;-0.176;2024-02-23T20:14:30;47.50;;;24.05;;
29700;SDS011;57917;51.380;-0.176;2024-02-23T20:20:23;2.85;;;1.48;;
29700;SDS011;57917;51.380;-0.176;2024-02-23T20:26:19;1.38;;;0.95;;
29700;SDS011;57917;51.380;-0.176;2024-02-23T20:32:15;3.90;;;2.47;;
29700;SDS011;57917;51.380;-0.176;2024-02-23T20:38:15;0.80;;;0.80;;
29700;SDS011;57917;51.380;-0.176;2024-02-23T20:44:05;2.58;;;0.70;;
29700;SDS011;57917;51.380;-0.176;2024-02-23T20:49:55;1.23;;;1.13;;
29700;SDS011;57917;51.380;-0.176;2024-02-23T20:55:43;1.38;;;1.27;;
29700;SDS011;57917;51.380;-0.176;2024-02-23T21:01:29;1.63;;;0.73;;
29700;SDS011;57917;51.380;-0.176;2024-02-23T21:07:16;1.20;;;1.02;;
29700;SDS011;57917;51.380;-0.176;2024-02-23T21:13:07;12.38;;;1.27;;
29700;SDS011;57917;51.380;-0.176;2024-02-23T21:18:54;1.00;;;1.00;;
29700;SDS011;57917;51.380;-0.176;2024-02-23T21:24:41;0.93;;;0.85;;
29700;SDS011;57917;51.380;-0.176;2024-02-23T21:30:33;30.25;;;1.85;;
29700;SDS011;57917;51.380;-0.176;2024-02-23T21:36:20;1.02;;;0.95;;
29700;SDS011;57917;51.380;-0.176;2024-02-23T21:42:08;1.13;;;1.00;;
29700;SDS011;57917;51.380;-0.176;2024-02-23T21:47:54;1.10;;;1.10;;
29700;SDS011;57917;51.380;-0.176;2024-02-23T21:53:41;1.00;;;0.82;;
29700;SDS011;57917;51.380;-0.176;2024-02-23T21:59:28;0.95;;;0.75;;
29700;SDS011;57917;51.380;-0.176;2024-02-23T22:05:16;3.58;;;1.33;;
29700;SDS011;57917;51.380;-0.176;2024-02-23T22:11:03;3.15;;;1.35;;
29700;SDS011;57917;51.380;-0.176;2024-02-23T22:17:09;1.10;;;0.85;;
29700;SDS011;57917;51.380;-0.176;2024-02-23T22:22:56;0.82;;;0.82;;
29700;SDS011;57917;51.380;-0.176;2024-02-23T22:28:43;41.40;;;12.15;;
29700;SDS011;57917;51.380;-0.176;2024-02-23T22:34:30;103.63;;;35.35;;
29700;SDS011;57917;51.380;-0.176;2024-02-23T22:40:16;95.38;;;39.03;;
29700;SDS011;57917;51.380;-0.176;2024-02-23T22:46:07;113.82;;;37.95;;
29700;SDS011;57917;51.380;-0.176;2024-02-23T22:51:54;86.28;;;33.40;;
29700;SDS011;57917;51.380;-0.176;2024-02-23T22:57:41;3.60;;;1.45;;
29700;SDS011;57917;51.380;-0.176;2024-02-23T23:03:31;2.65;;;1.05;;
29700;SDS011;57917;51.380;-0.176;2024-02-23T23:09:18;6.93;;;4.78;;
29700;SDS011;57917;51.380;-0.176;2024-02-23T23:15:06;3.45;;;1.95;;
29700;SDS011;57917;51.380;-0.176;2024-02-23T23:20:57;1.27;;;1.07;;
29700;SDS011;57917;51.380;-0.176;2024-02-23T23:26:47;3.83;;;1.92;;
29700;SDS011;57917;51.380;-0.176;2024-02-23T23:32:34;37.05;;;13.45;;
29700;SDS011;57917;51.380;-0.176;2024-02-23T23:38:30;4.25;;;2.15;;
29700;SDS011;57917;51.380;-0.176;2024-02-23T23:44:30;3.70;;;1.75;;
29700;SDS011;57917;51.380;-0.176;2024-02-23T23:50:16;3.78;;;1.67;;
29700;SDS011;57917;51.380;-0.176;2024-02-23T23:56:04;14.13;;;4.45;;
